Time;durP1;ratioP1;P1;durP2;ratioP2;P2;SDS_P1;SDS_P2;PMS_P1;PMS_P2;Temp;Humidity;BMP_temperature;BMP_pressure;BME280_temperature;BME280_humidity;BME280_pressure;Samples;Min_cycle;Max_cycle;Signal;HPM_P1;HPM_P2
2022/05/25 00:01:48;;;;;;;0.70;0.60;;;;;;;9.06;96.36;98205.94;5056770;28;20021;-70
2022/05/25 00:04:13;;;;;;;0.70;0.50;;;;;;;9.06;97.96;98206.81;5065175;28;20052;-70
2022/05/25 00:06:40;;;;;;;4.47;0.80;;;;;;;9.12;98.18;98211.94;5054917;28;20329;-70
2022/05/25 00:09:05;;;;;;;0.68;0.60;;;;;;;9.15;97.81;98206.66;5049102;28;20017;-70
2022/05/25 00:11:31;;;;;;;0.70;0.50;;;;;;;9.14;97.90;98204.88;5065025;28;20043;-70
2022/05/25 00:13:56;;;;;;;2.90;0.60;;;;;;;9.16;97.52;98210.97;5046825;28;20075;-70
2022/05/25 00:16:22;;;;;;;0.47;0.45;;;;;;;9.11;97.27;98206.72;5048198;28;20036;-70
2022/05/25 00:21:31;;;;;;;1.30;0.68;;;;;;;9.11;96.91;98204.09;5057409;28;20273;-70
2022/05/25 00:23:57;;;;;;;0.80;0.63;;;;;;;9.12;96.34;98208.44;5057601;28;20025;-70
2022/05/25 00:26:23;;;;;;;5.13;1.15;;;;;;;8.91;96.35;98206.25;5063008;28;20036;-70
2022/05/25 00:28:48;;;;;;;0.60;0.60;;;;;;;8.88;97.49;98206.31;5064479;28;20021;-70
2022/05/25 00:31:14;;;;;;;0.73;0.52;;;;;;;8.87;97.99;98220.31;5056955;28;20033;-70
2022/05/25 00:33:40;;;;;;;0.55;0.50;;;;;;;8.87;98.18;98215.06;5046103;28;20217;-70
2022/05/25 00:36:06;;;;;;;4.30;0.60;;;;;;;8.76;97.72;98218.78;5044847;28;20029;-70
2022/05/25 00:38:31;;;;;;;11.02;1.00;;;;;;;8.75;97.73;98221.44;5053829;28;20021;-70
2022/05/25 00:40:57;;;;;;;0.57;0.40;;;;;;;8.72;98.92;98217.13;5044916;28;20067;-70
2022/05/25 00:43:23;;;;;;;1.25;0.80;;;;;;;8.82;98.69;98229.16;5050029;28;20020;-70
2022/05/25 00:45:59;;;;;;;0.57;0.57;;;;;;;8.62;97.86;98235.66;5061158;28;20058;-70
2022/05/25 00:48:30;;;;;;;0.60;0.60;;;;;;;8.69;97.64;98232.91;5063747;28;20096;-70
2022/05/25 00:51:13;;;;;;;3.00;1.00;;;;;;;8.75;97.87;98227.56;5050948;28;20032;-70
2022/05/25 00:53:45;;;;;;;1.17;0.70;;;;;;;8.70;96.61;98233.75;5063041;28;20044;-70
2022/05/25 00:56:14;;;;;;;0.60;0.50;;;;;;;8.57;97.67;98227.88;5057824;28;20029;-70
2022/05/25 00:58:45;;;;;;;3.85;0.57;;;;;;;8.55;97.20;98234.91;5045211;28;20036;-70
2022/05/25 01:01:10;;;;;;;0.75;0.52;;;;;;;8.38;96.66;98231.72;5063848;28;20039;-70
2022/05/25 01:03:36;;;;;;;0.65;0.52;;;;;;;8.32;96.24;98237.06;5052596;28;20091;-70
2022/05/25 01:06:21;;;;;;;3.05;0.93;;;;;;;8.16;95.70;98234.66;5056725;28;20021;-70
2022/05/25 01:08:58;;;;;;;0.50;0.50;;;;;;;8.23;97.01;98237.19;5044445;28;20021;-70
2022/05/25 01:11:30;;;;;;;3.95;0.40;;;;;;;8.13;97.66;98240.84;5044346;28;20253;-70
2022/05/25 01:14:29;;;;;;;0.82;0.50;;;;;;;8.22;98.11;98245.97;5056913;28;20088;-70
2022/05/25 01:17:07;;;;;;;0.50;0.50;;;;;;;8.23;97.66;98247.69;5051388;28;20043;-70
2022/05/25 01:19:58;;;;;;;1.20;0.73;;;;;;;8.07;97.55;98251.41;5045290;28;20036;-70
2022/05/25 01:22:29;;;;;;;0.50;0.50;;;;;;;8.03;97.54;98249.75;5050464;28;20024;-70
2022/05/25 01:25:19;;;;;;;4.57;0.65;;;;;;;8.11;96.90;98242.63;5063239;28;20101;-70
2022/05/25 01:27:47;;;;;;;0.70;0.60;;;;;;;7.86;96.45;98243.03;5055596;28;20344;-70
2022/05/25 01:30:20;;;;;;;0.93;0.65;;;;;;;7.72;96.33;98240.59;5043887;28;20029;-70
2022/05/25 01:33:16;;;;;;;1.50;0.80;;;;;;;7.79;97.62;98247.47;5044000;28;20190;-70
2022/05/25 01:35:41;;;;;;;1.50;0.70;;;;;;;7.69;97.97;98240.63;5044116;28;20086;-70
2022/05/25 01:38:35;;;;;;;0.85;0.50;;;;;;;7.75;99.38;98248.41;5043970;28;20329;-70
2022/05/25 01:41:11;;;;;;;2.88;0.93;;;;;;;7.80;99.15;98248.34;5050366;28;20028;-70
2022/05/25 01:43:38;;;;;;;0.70;0.60;;;;;;;7.71;99.26;98251.97;5045697;28;20088;-70
2022/05/25 01:46:31;;;;;;;1.15;0.47;;;;;;;7.76;98.88;98250.16;5043851;28;20060;-70
2022/05/25 01:49:01;;;;;;;0.55;0.50;;;;;;;7.70;98.53;98250.25;5052487;28;20071;-70
2022/05/25 01:51:33;;;;;;;1.52;0.90;;;;;;;7.72;97.45;98248.44;5063281;28;20024;-70
2022/05/25 01:54:00;;;;;;;;;;;;;;;7.41;97.35;98244.53;5055510;28;20327;-70
2022/05/25 01:56:28;;;;;;;0.90;0.60;;;;;;;7.38;98.05;98252.44;5054654;28;19912;-70
2022/05/25 01:58:59;;;;;;;0.93;0.60;;;;;;;7.35;98.71;98252.47;5063116;28;20040;-70
2022/05/25 02:01:24;;;;;;;1.15;0.80;;;;;;;7.42;98.82;98254.13;5044993;28;20044;-70
2022/05/25 02:06:43;;;;;;;1.40;0.60;;;;;;;7.53;100.00;98257.44;5053192;28;20270;-70
2022/05/25 02:09:22;;;;;;;1.50;0.88;;;;;;;7.51;98.73;98264.47;5060278;28;20035;-70
2022/05/25 02:11:52;;;;;;;5.20;0.77;;;;;;;7.43;98.65;98258.47;5043921;28;20029;-70
2022/05/25 02:14:36;;;;;;;5.97;0.98;;;;;;;7.41;97.39;98262.88;5054865;28;20035;-70
2022/05/25 02:17:20;;;;;;;4.82;0.70;;;;;;;6.98;98.70;98263.38;5054609;28;20025;-70
2022/05/25 02:19:53;;;;;;;1.45;0.68;;;;;;;6.89;99.69;98260.88;5057013;28;20100;-70
2022/05/25 02:22:49;;;;;;;0.73;0.70;;;;;;;7.01;100.00;98266.84;5062688;28;20021;-70
2022/05/25 02:25:18;;;;;;;0.68;0.68;;;;;;;7.09;100.00;98266.75;5054239;28;20043;-70
2022/05/25 02:27:49;;;;;;;2.38;0.80;;;;;;;7.14;100.00;98278.00;5062938;28;20326;-70
2022/05/25 02:30:19;;;;;;;3.10;0.70;;;;;;;7.27;100.00;98277.88;5062962;28;20041;-70
2022/05/25 02:32:53;;;;;;;1.17;0.82;;;;;;;7.34;100.00;98287.38;5044458;28;20036;-70
2022/05/25 02:35:21;;;;;;;1.08;0.82;;;;;;;7.26;100.00;98278.75;5043535;28;20025;-70
2022/05/25 02:37:49;;;;;;;1.15;0.85;;;;;;;7.16;99.52;98285.00;5051801;28;20017;-70
2022/05/25 02:40:15;;;;;;;5.68;0.80;;;;;;;7.19;99.46;98295.44;5043507;28;20348;-70
2022/05/25 02:42:41;;;;;;;3.92;0.98;;;;;;;7.25;99.26;98282.28;5053095;28;20021;-70
2022/05/25 02:45:09;;;;;;;0.98;0.68;;;;;;;7.12;98.63;98293.72;5053606;28;20029;-70
2022/05/25 02:47:35;;;;;;;0.98;0.85;;;;;;;7.06;98.83;98285.09;5066093;28;20028;-70
2022/05/25 02:50:00;;;;;;;0.70;0.70;;;;;;;7.16;99.72;98298.06;5061554;28;20037;-70
2022/05/25 02:52:27;;;;;;;0.85;0.80;;;;;;;7.26;99.92;98304.94;5057967;28;20316;-70
2022/05/25 02:54:52;;;;;;;0.63;0.63;;;;;;;6.90;98.63;98294.88;5055766;28;20035;-70
2022/05/25 02:57:18;;;;;;;5.35;0.90;;;;;;;6.93;98.74;98297.44;5046793;28;20372;-70
2022/05/25 02:59:43;;;;;;;1.27;0.80;;;;;;;6.99;99.03;98305.22;5062912;28;20075;-70
2022/05/25 03:02:09;;;;;;;0.63;0.63;;;;;;;6.83;98.26;98303.63;5066090;28;20021;-70
2022/05/25 03:04:37;;;;;;;1.58;1.23;;;;;;;6.78;98.82;98305.47;5059985;28;20044;-70
2022/05/25 03:07:03;;;;;;;0.98;0.70;;;;;;;6.88;97.78;98301.88;5063889;28;20059;-70
2022/05/25 03:09:29;;;;;;;0.80;0.70;;;;;;;6.70;97.59;98306.41;5064724;28;20066;-70
2022/05/25 03:11:55;;;;;;;2.53;0.77;;;;;;;6.57;97.99;98310.88;5050644;28;20025;-70
2022/05/25 03:14:21;;;;;;;1.52;0.95;;;;;;;6.62;99.50;98311.72;5063978;28;20028;-70
2022/05/25 03:16:46;;;;;;;0.95;0.75;;;;;;;6.62;99.97;98314.31;5061504;28;20343;-70
2022/05/25 03:19:12;;;;;;;2.13;1.08;;;;;;;6.70;99.42;98309.88;5047535;28;20100;-70
2022/05/25 03:21:37;;;;;;;2.83;1.23;;;;;;;6.63;99.29;98310.81;5046402;28;20025;-70
2022/05/25 03:24:03;;;;;;;2.00;0.80;;;;;;;6.64;99.72;98307.31;5046296;28;20025;-70
2022/05/25 03:26:28;;;;;;;1.80;0.90;;;;;;;6.68;100.00;98311.66;5053545;28;20025;-70
2022/05/25 03:28:54;;;;;;;1.63;0.93;;;;;;;6.80;100.00;98319.38;5055321;28;20320;-70
2022/05/25 03:31:19;;;;;;;1.08;0.95;;;;;;;6.85;100.00;98320.19;5046140;28;20025;-70
2022/05/25 03:33:45;;;;;;;1.30;0.82;;;;;;;6.66;100.00;98326.47;5053463;28;20021;-70
2022/05/25 03:36:10;;;;;;;1.00;0.90;;;;;;;6.54;99.55;98327.47;5065222;28;20028;-70
2022/05/25 03:38:36;;;;;;;1.27;0.80;;;;;;;6.44;98.61;98330.16;5046055;28;20280;-70
2022/05/25 03:41:02;;;;;;;2.35;1.30;;;;;;;6.41;98.88;98330.19;5059922;28;20029;-71
2022/05/25 03:43:33;;;;;;;0.98;0.82;;;;;;;6.43;99.93;98325.81;5048251;28;20076;-71
2022/05/25 03:45:59;;;;;;;2.58;0.95;;;;;;;6.48;99.93;98337.09;5045956;28;20034;-70
2022/05/25 03:48:25;;;;;;;1.48;0.93;;;;;;;6.39;99.33;98335.41;5060402;28;20024;-71
2022/05/25 03:50:50;;;;;;;1.05;0.95;;;;;;;6.38;100.00;98335.44;5064962;28;20024;-71
2022/05/25 03:53:16;;;;;;;0.80;0.80;;;;;;;6.46;100.00;98338.88;5064461;28;20043;-71
2022/05/25 03:55:42;;;;;;;1.40;0.95;;;;;;;6.56;100.00;98335.28;5049047;28;20333;-72
2022/05/25 03:58:09;;;;;;;1.70;0.80;;;;;;;6.50;99.54;98340.56;5045973;28;20052;-71
2022/05/25 04:00:34;;;;;;;1.27;1.00;;;;;;;6.38;98.86;98348.50;5050621;28;20031;-72
2022/05/25 04:03:02;;;;;;;1.48;0.93;;;;;;;6.39;99.29;98347.59;5048882;28;20029;-71
2022/05/25 04:05:29;;;;;;;1.13;0.88;;;;;;;6.50;100.00;98356.25;5056594;28;20339;-71
2022/05/25 04:07:56;;;;;;;1.83;1.00;;;;;;;6.57;100.00;98363.16;5050705;28;20028;-71
2022/05/25 04:10:22;;;;;;;2.80;1.17;;;;;;;6.67;100.00;98361.34;5061953;28;20241;-71
2022/05/25 04:12:49;;;;;;;0.98;0.77;;;;;;;6.58;99.48;98364.88;5048846;28;20213;-71
2022/05/25 04:15:21;;;;;;;1.08;0.90;;;;;;;6.60;98.60;98364.03;5064770;28;20029;-71
2022/05/25 04:17:47;;;;;;;;;;;;;;;6.61;99.18;98370.09;5062772;28;20034;-71
2022/05/25 04:20:14;;;;;;;1.00;0.80;;;;;;;6.70;98.86;98374.41;5058581;28;20246;-71
2022/05/25 04:22:40;;;;;;;3.30;1.05;;;;;;;6.64;99.29;98372.69;5064626;28;20239;-71
2022/05/25 04:25:10;;;;;;;2.33;1.13;;;;;;;6.72;99.69;98376.97;5060396;28;20053;-71
2022/05/25 04:27:36;;;;;;;1.23;0.90;;;;;;;6.79;99.25;98376.91;5045376;28;20308;-71
2022/05/25 04:30:04;;;;;;;1.20;1.08;;;;;;;6.82;98.43;98377.78;5045958;28;20021;-71
2022/05/25 04:32:30;;;;;;;4.20;0.82;;;;;;;6.70;99.27;98377.88;5053786;28;20257;-71
2022/05/25 04:34:57;;;;;;;4.03;1.23;;;;;;;6.88;100.00;98379.47;5051103;28;20047;-71
2022/05/25 04:40:07;;;;;;;0.75;0.75;;;;;;;7.73;98.36;98396.03;5052414;28;20083;-71
2022/05/25 04:42:32;;;;;;;0.93;0.75;;;;;;;8.95;93.87;98402.16;5064745;28;20020;-71
2022/05/25 04:45:03;;;;;;;2.15;1.08;;;;;;;9.90;88.34;98398.63;5064820;28;20044;-71
2022/05/25 04:47:30;;;;;;;1.10;0.82;;;;;;;10.67;83.58;98406.53;5064744;28;20021;-71
2022/05/25 04:49:55;;;;;;;1.05;0.90;;;;;;;11.08;81.39;98400.28;5064491;28;20111;-70
2022/05/25 04:52:22;;;;;;;1.90;0.70;;;;;;;11.56;79.96;98401.66;5064598;28;20198;-71
2022/05/25 04:54:47;;;;;;;2.03;0.98;;;;;;;12.16;78.03;98410.53;5064661;28;20313;-70
2022/05/25 04:57:23;;;;;;;1.55;0.77;;;;;;;12.59;75.71;98410.94;5064402;28;20088;-70
2022/05/25 04:59:55;;;;;;;1.20;0.93;;;;;;;12.96;73.90;98411.53;5064517;28;20321;-71
2022/05/25 05:02:21;;;;;;;0.75;0.60;;;;;;;13.27;73.15;98415.81;5064395;28;20028;-71
2022/05/25 05:04:47;;;;;;;0.73;0.70;;;;;;;13.61;72.48;98405.84;5064158;28;20025;-71
2022/05/25 05:07:14;;;;;;;0.93;0.80;;;;;;;13.75;71.07;98415.00;5064341;28;20088;-70
2022/05/25 05:09:41;;;;;;;0.82;0.70;;;;;;;13.32;71.91;98420.03;5064297;28;20025;-71
2022/05/25 05:12:08;;;;;;;0.50;0.47;;;;;;;13.90;72.71;98421.53;5064200;28;20020;-71
2022/05/25 05:14:33;;;;;;;0.70;0.63;;;;;;;14.38;69.84;98417.13;5064269;28;20333;-71
2022/05/25 05:17:00;;;;;;;0.52;0.43;;;;;;;14.43;69.76;98420.47;5064131;28;20092;-70
2022/05/25 05:19:27;;;;;;;1.38;1.10;;;;;;;14.94;69.73;98431.69;5064197;28;20028;-71
2022/05/25 05:21:59;;;;;;;1.88;0.80;;;;;;;15.22;68.94;98437.56;5064155;28;20071;-71
2022/05/25 05:24:26;;;;;;;1.23;0.65;;;;;;;15.63;67.90;98435.91;5064355;28;20021;-70
2022/05/25 05:26:52;;;;;;;3.80;0.70;;;;;;;15.96;66.95;98440.63;5064090;28;20024;-71
2022/05/25 05:29:18;;;;;;;0.80;0.80;;;;;;;15.90;68.81;98446.19;5064183;28;20339;-71
2022/05/25 05:31:43;;;;;;;1.58;0.85;;;;;;;16.25;68.85;98453.47;5063966;28;20025;-70
2022/05/25 05:34:09;;;;;;;0.95;0.75;;;;;;;16.73;66.79;98450.38;5063966;28;20134;-71
2022/05/25 05:36:39;;;;;;;3.22;0.90;;;;;;;17.03;65.91;98447.13;5063834;28;20032;-71
2022/05/25 05:39:07;;;;;;;1.50;0.82;;;;;;;17.42;65.57;98462.09;5063904;28;20088;-71
2022/05/25 05:41:42;;;;;;;3.40;0.85;;;;;;;17.70;65.42;98458.03;5063877;28;20032;-71
2022/05/25 05:44:10;;;;;;;3.45;0.85;;;;;;;17.92;64.46;98457.78;5063883;28;20312;-71
2022/05/25 05:46:38;;;;;;;1.45;0.90;;;;;;;17.78;65.21;98460.31;5063843;28;20086;-71
2022/05/25 05:49:08;;;;;;;2.10;0.95;;;;;;;18.27;63.57;98459.47;5063834;28;20232;-71
2022/05/25 05:51:36;;;;;;;2.95;0.90;;;;;;;18.73;62.28;98464.09;5063777;28;20024;-71
2022/05/25 05:54:02;;;;;;;1.85;1.05;;;;;;;18.99;61.38;98468.88;5063741;28;20213;-71
2022/05/25 05:56:28;;;;;;;0.70;0.70;;;;;;;18.78;63.82;98470.03;5063959;28;20021;-71
2022/05/25 05:58:54;;;;;;;1.83;1.00;;;;;;;18.82;63.20;98474.25;5063718;28;20376;-71
2022/05/25 06:01:20;;;;;;;1.08;0.98;;;;;;;19.21;64.75;98480.06;5063777;28;20028;-71
2022/05/25 06:03:45;;;;;;;1.98;0.90;;;;;;;19.59;63.41;98476.09;5063687;28;20025;-71
2022/05/25 06:06:10;;;;;;;2.88;1.20;;;;;;;20.04;61.93;98483.22;5063634;28;20024;-71
2022/05/25 06:08:36;;;;;;;1.67;1.10;;;;;;;20.61;60.36;98483.25;5063604;28;20063;-70
2022/05/25 06:11:01;;;;;;;1.58;1.10;;;;;;;20.67;57.06;98485.53;5063635;28;20047;-70
2022/05/25 06:13:27;;;;;;;2.35;1.13;;;;;;;21.17;56.02;98496.59;5063543;28;20020;-71
2022/05/25 06:21:23;;;;;;;3.28;1.10;;;;;;;21.73;55.19;98508.16;5067512;28;20028;-70
2022/05/25 06:23:49;;;;;;;2.50;1.15;;;;;;;22.10;55.93;98512.78;5067528;28;20020;-71
2022/05/25 06:26:15;;;;;;;1.40;0.80;;;;;;;22.20;54.24;98508.50;5067366;28;20024;-71
2022/05/25 06:28:44;;;;;;;2.05;1.08;;;;;;;22.61;54.36;98511.94;5067351;28;20039;-71
2022/05/25 06:31:10;;;;;;;4.20;1.10;;;;;;;22.73;52.57;98514.63;5067291;28;20339;-71
2022/05/25 06:33:37;;;;;;;1.50;1.00;;;;;;;22.63;53.07;98512.69;5067261;28;20031;-71
2022/05/25 06:36:12;;;;;;;1.23;0.80;;;;;;;22.52;54.08;98521.47;5067092;28;20040;-71
2022/05/25 06:38:38;;;;;;;5.57;1.10;;;;;;;22.29;53.68;98519.50;5067079;28;20062;-71
2022/05/25 06:41:03;;;;;;;1.13;0.95;;;;;;;22.59;54.35;98516.56;5067085;28;20025;-71
2022/05/25 06:43:29;;;;;;;4.63;1.00;;;;;;;22.80;51.17;98525.78;5067110;28;20240;-71
2022/05/25 06:45:54;;;;;;;4.53;1.08;;;;;;;23.38;50.87;98536.78;5066978;28;20039;-71
2022/05/25 06:48:19;;;;;;;1.10;1.00;;;;;;;23.60;50.72;98534.25;5066966;28;20024;-71
2022/05/25 06:50:46;;;;;;;2.80;0.70;;;;;;;23.45;51.82;98538.09;5066760;28;20209;-71
2022/05/25 06:53:12;;;;;;;4.65;1.23;;;;;;;24.00;48.90;98538.44;5066871;28;20035;-71
2022/05/25 06:55:37;;;;;;;3.08;1.00;;;;;;;23.92;50.06;98532.75;5067064;28;20017;-70
2022/05/25 06:58:02;;;;;;;2.10;0.90;;;;;;;24.14;49.44;98543.63;5066720;28;20025;-71
2022/05/25 07:00:28;;;;;;;2.25;1.10;;;;;;;24.12;50.61;98540.22;5066760;28;20024;-70
2022/05/25 07:02:53;;;;;;;3.05;1.20;;;;;;;24.00;48.53;98549.22;5066625;28;20082;-70
2022/05/25 07:05:19;;;;;;;2.17;1.00;;;;;;;23.91;50.36;98552.53;5066751;28;20352;-71
2022/05/25 07:07:44;;;;;;;1.17;0.95;;;;;;;24.29;49.33;98550.56;5066591;28;20045;-71
2022/05/25 07:10:10;;;;;;;5.22;1.20;;;;;;;24.64;47.80;98543.38;5066575;28;20047;-70
2022/05/25 07:12:36;;;;;;;1.13;0.88;;;;;;;24.02;48.35;98552.66;5066542;28;20036;-71
2022/05/25 07:15:01;;;;;;;7.15;1.10;;;;;;;24.20;49.79;98553.94;5066515;28;20063;-70
2022/05/25 07:17:27;;;;;;;1.77;0.80;;;;;;;24.56;48.27;98563.75;5066369;28;20017;-71
2022/05/25 07:19:53;;;;;;;1.63;0.90;;;;;;;23.89;50.52;98559.84;5066415;28;20029;-70
2022/05/25 07:22:19;;;;;;;2.22;1.05;;;;;;;24.53;50.03;98562.16;5066446;28;20031;-71
2022/05/25 07:24:44;;;;;;;3.10;1.00;;;;;;;25.01;46.40;98561.06;5066548;28;20259;-70
2022/05/25 07:27:09;;;;;;;1.58;0.70;;;;;;;24.97;46.97;98556.88;5066243;28;20256;-71
2022/05/25 07:29:35;;;;;;;2.45;0.77;;;;;;;25.88;44.65;98563.00;5065922;28;20069;-71
2022/05/25 07:32:04;;;;;;;1.48;0.90;;;;;;;25.85;43.63;98553.31;5066062;28;20051;-70
2022/05/25 07:34:54;;;;;;;1.20;0.93;;;;;;;25.77;46.62;98565.72;5066403;28;20021;-70
2022/05/25 07:37:23;;;;;;;1.42;0.82;;;;;;;25.74;42.72;98563.25;5065997;28;20324;-71
2022/05/25 07:40:12;;;;;;;1.48;0.80;;;;;;;25.70;44.21;98564.50;5066027;28;20027;-71
2022/05/25 07:42:41;;;;;;;1.63;1.00;;;;;;;23.81;46.33;98556.88;5066205;28;20031;-70
2022/05/25 07:45:07;;;;;;;4.00;1.20;;;;;;;23.40;48.57;98551.00;5066190;28;20025;-71
2022/05/25 07:47:33;;;;;;;1.95;0.80;;;;;;;25.14;46.18;98564.50;5065912;28;20016;-71
2022/05/25 07:49:59;;;;;;;1.05;0.65;;;;;;;25.25;46.00;98559.09;5065528;28;20032;-71
2022/05/25 07:52:28;;;;;;;0.80;0.80;;;;;;;25.59;45.43;98556.44;5065830;28;20025;-71
2022/05/25 07:54:55;;;;;;;1.15;0.60;;;;;;;25.69;45.17;98557.41;5065756;28;20252;-71
2022/05/25 07:57:20;;;;;;;1.33;0.65;;;;;;;25.32;45.13;98564.03;5065699;28;20056;-71
2022/05/25 07:59:46;;;;;;;0.85;0.50;;;;;;;25.95;45.17;98566.91;5065605;28;20071;-71
2022/05/25 08:05:49;;;;;;;1.65;0.75;;;;;;;26.33;43.26;98570.00;5065538;28;20103;-71
2022/05/25 08:07:55;;;;;;;3.90;0.70;;;;;;;26.59;42.51;98576.75;5062491;28;20092;-71
2022/05/25 08:10:23;;;;;;;1.98;0.75;;;;;;;26.12;43.60;98582.56;5065541;28;20082;-71
2022/05/25 08:12:51;;;;;;;1.00;0.60;;;;;;;26.79;43.69;98575.94;5065483;28;20052;-71
2022/05/25 08:15:17;;;;;;;2.20;0.50;;;;;;;26.10;43.59;98581.88;5065419;28;20025;-71
2022/05/25 08:17:43;;;;;;;1.58;0.70;;;;;;;26.64;43.30;98579.97;5065191;28;20021;-71
2022/05/25 08:20:10;;;;;;;1.35;0.70;;;;;;;26.41;43.37;98583.69;5065487;28;20126;-70
2022/05/25 08:22:37;;;;;;;1.17;0.50;;;;;;;26.13;41.33;98584.31;5065456;28;20304;-71
2022/05/25 08:25:03;;;;;;;1.25;0.55;;;;;;;26.02;44.50;98581.63;5065372;28;20021;-72
2022/05/25 08:27:29;;;;;;;1.83;0.93;;;;;;;26.38;42.22;98583.94;5065074;28;20081;-72
2022/05/25 08:29:55;;;;;;;2.03;0.40;;;;;;;27.00;42.13;98580.38;5065120;28;20025;-72
2022/05/25 08:32:20;;;;;;;0.85;0.65;;;;;;;26.94;43.02;98582.72;5065081;28;20021;-71
2022/05/25 08:34:46;;;;;;;0.98;0.50;;;;;;;26.98;42.47;98578.75;5065077;28;20221;-71
2022/05/25 08:37:11;;;;;;;1.08;0.52;;;;;;;27.09;40.98;98578.72;5064822;28;20028;-71
2022/05/25 08:39:37;;;;;;;0.52;0.50;;;;;;;27.14;40.50;98576.44;5064145;28;20047;-71
2022/05/25 08:42:09;;;;;;;1.60;0.50;;;;;;;27.15;41.29;98572.78;5064840;28;20091;-72
2022/05/25 08:44:36;;;;;;;1.65;0.60;;;;;;;26.75;42.01;98571.78;5064725;28;20029;-72
2022/05/25 08:47:05;;;;;;;1.67;0.50;;;;;;;26.78;41.26;98576.94;5064636;28;20027;-72
2022/05/25 08:49:32;;;;;;;1.55;0.65;;;;;;;26.93;42.75;98581.03;5064521;28;20033;-72
2022/05/25 08:52:02;;;;;;;2.65;0.63;;;;;;;26.67;42.49;98585.09;5064637;28;20028;-72
2022/05/25 08:54:29;;;;;;;1.83;0.50;;;;;;;27.26;39.70;98578.09;5064852;28;20017;-72
2022/05/25 08:57:25;;;;;;;2.05;0.52;;;;;;;26.68;40.56;98579.56;5064408;28;20025;-72
2022/05/25 09:00:03;;;;;;;2.17;0.80;;;;;;;26.40;41.81;98587.38;5060224;28;20100;-72
2022/05/25 09:02:59;;;;;;;3.97;0.93;;;;;;;25.01;43.62;98574.53;5064412;28;20021;-72
2022/05/25 09:05:24;;;;;;;1.20;0.63;;;;;;;24.29;45.06;98577.47;5064442;28;20339;-72
2022/05/25 09:08:11;;;;;;;3.72;0.80;;;;;;;25.76;44.67;98586.44;5064380;28;20017;-72
2022/05/25 09:10:47;;;;;;;2.50;0.80;;;;;;;26.00;41.71;98579.06;5064313;28;20063;-72
2022/05/25 09:13:32;;;;;;;1.10;0.50;;;;;;;26.71;40.95;98564.94;5064273;28;20025;-72
2022/05/25 09:16:16;;;;;;;2.15;0.60;;;;;;;25.96;44.19;98580.28;5064247;28;20032;-72
2022/05/25 09:18:46;;;;;;;2.20;0.57;;;;;;;26.74;40.36;98586.28;5064170;28;20243;-72
2022/05/25 09:21:16;;;;;;;0.80;0.70;;;;;;;27.60;41.56;98582.25;5064124;28;20028;-72
2022/05/25 09:23:41;;;;;;;0.40;0.40;;;;;;;26.68;41.27;98582.28;5064121;28;20032;-72
2022/05/25 09:26:07;;;;;;;2.72;0.57;;;;;;;26.73;40.72;98569.22;5064038;28;20021;-71
2022/05/25 09:28:36;;;;;;;1.80;0.50;;;;;;;27.30;41.59;98576.00;5064064;28;20024;-71
2022/05/25 09:31:03;;;;;;;5.43;0.90;;;;;;;27.58;41.61;98578.00;5064012;28;20020;-71
2022/05/25 09:33:47;;;;;;;2.17;0.70;;;;;;;26.66;43.33;98577.97;5064015;28;20029;-71
2022/05/25 09:36:19;;;;;;;2.42;0.60;;;;;;;24.80;45.24;98562.72;5064106;28;20355;-71
2022/05/25 09:38:55;;;;;;;1.83;0.43;;;;;;;24.50;43.61;98559.69;5063928;28;20028;-71
2022/05/25 09:41:24;;;;;;;1.38;0.60;;;;;;;23.43;47.18;98566.88;5064042;28;20017;-71
2022/05/25 09:43:54;;;;;;;0.80;0.65;;;;;;;25.07;44.75;98582.13;5063924;28;20201;-71
2022/05/25 09:46:28;;;;;;;0.98;0.60;;;;;;;25.72;42.19;98578.72;5064125;28;20305;-71
2022/05/25 09:49:02;;;;;;;1.17;0.40;;;;;;;25.92;42.78;98581.50;5063669;28;20041;-71
2022/05/25 09:51:35;;;;;;;2.05;0.40;;;;;;;25.94;42.77;98590.31;5065442;28;20056;-71
2022/05/25 09:54:18;;;;;;;2.33;0.70;;;;;;;26.26;42.57;98579.59;5068016;28;20032;-71
2022/05/25 09:56:54;;;;;;;2.40;0.52;;;;;;;26.48;44.60;98590.31;5067846;28;20343;-71
2022/05/25 09:59:28;;;;;;;0.47;0.43;;;;;;;26.78;41.74;98576.94;5067964;28;20021;-71
2022/05/25 10:01:55;;;;;;;2.38;0.68;;;;;;;26.13;42.40;98584.31;5067850;28;20027;-71
2022/05/25 10:04:37;;;;;;;0.55;0.55;;;;;;;24.59;44.24;98575.16;5067768;28;20021;-71
2022/05/25 10:07:17;;;;;;;2.72;0.90;;;;;;;23.93;46.53;98580.19;5067768;28;20055;-71
2022/05/25 10:09:51;;;;;;;2.67;0.60;;;;;;;23.66;46.83;98571.44;5067725;28;20216;-71
2022/05/25 10:12:25;;;;;;;1.23;0.70;;;;;;;23.37;47.40;98577.19;5067677;28;20020;-71
2022/05/25 10:14:56;;;;;;;0.85;0.60;;;;;;;23.04;48.81;98573.22;5067722;28;20031;-71
2022/05/25 10:17:34;;;;;;;0.50;0.50;;;;;;;24.56;47.22;98575.38;5067584;28;20017;-71
2022/05/25 10:20:00;;;;;;;1.13;0.60;;;;;;;24.27;45.57;98573.19;5067807;28;20062;-71
2022/05/25 10:22:31;;;;;;;2.35;0.70;;;;;;;24.45;44.27;98572.63;5067514;28;20027;-71
2022/05/25 10:25:34;;;;;;;1.93;0.50;;;;;;;24.82;43.55;98566.19;5067725;28;20032;-71
2022/05/25 10:28:01;;;;;;;2.28;0.73;;;;;;;24.87;46.09;98563.97;5066410;28;20258;-71
2022/05/25 10:36:47;;;;;;;1.40;0.63;;;;;;;24.67;44.82;98572.75;5067152;28;20032;-71
2022/05/25 10:39:24;;;;;;;4.13;0.73;;;;;;;25.46;45.30;98571.91;5067163;28;20224;-71
2022/05/25 10:42:02;;;;;;;1.30;0.45;;;;;;;25.62;45.26;98572.38;5067390;28;20032;-71
2022/05/25 10:44:35;;;;;;;0.40;0.30;;;;;;;25.96;43.02;98571.31;5067008;28;20324;-71
2022/05/25 10:47:01;;;;;;;0.60;0.35;;;;;;;26.52;40.85;98564.78;5067069;28;20017;-71
2022/05/25 10:49:32;;;;;;;3.10;0.38;;;;;;;25.81;44.48;98567.19;5066882;28;20033;-71
2022/05/25 10:52:06;;;;;;;1.60;0.50;;;;;;;26.04;41.99;98568.88;5066971;28;20035;-72
2022/05/25 10:54:47;;;;;;;1.13;0.43;;;;;;;25.54;42.94;98569.44;5067144;28;20021;-72
2022/05/25 10:57:25;;;;;;;2.42;0.55;;;;;;;25.45;44.26;98565.63;5067042;28;20071;-72
2022/05/25 11:00:08;;;;;;;1.50;0.50;;;;;;;24.68;46.15;98574.44;5066805;28;20021;-72
2022/05/25 11:02:37;;;;;;;1.45;0.60;;;;;;;25.80;43.83;98577.13;5066066;28;20092;-72
2022/05/25 11:05:11;;;;;;;0.70;0.40;;;;;;;24.70;44.07;98569.81;5066710;28;20078;-72
2022/05/25 11:07:42;;;;;;;1.35;0.50;;;;;;;23.69;46.01;98565.84;5066919;28;20055;-72
2022/05/25 11:10:27;;;;;;;2.10;0.60;;;;;;;25.08;45.28;98578.44;5066639;28;20021;-72
2022/05/25 11:13:14;;;;;;;5.45;0.70;;;;;;;25.38;45.50;98577.03;5066776;28;20025;-72
2022/05/25 11:15:53;;;;;;;3.10;0.63;;;;;;;25.43;42.76;98582.91;5066482;28;20024;-72
2022/05/25 11:19:05;;;;;;;2.40;0.95;;;;;;;25.25;44.84;98575.28;5066486;28;20324;-72
2022/05/25 11:21:58;;;;;;;1.13;0.50;;;;;;;25.50;44.06;98578.75;5059671;28;20112;-72
2022/05/25 11:24:42;;;;;;;3.22;0.40;;;;;;;24.39;45.70;98578.47;5045476;28;20143;-72
2022/05/25 11:27:29;;;;;;;0.90;0.57;;;;;;;23.94;47.09;98571.16;5066259;28;20028;-72
2022/05/25 11:30:17;;;;;;;0.43;0.40;;;;;;;23.12;47.93;98578.06;5066237;28;20021;-72
2022/05/25 11:33:06;;;;;;;2.90;0.43;;;;;;;23.75;47.15;98581.53;5066168;28;20084;-72
2022/05/25 11:35:40;;;;;;;1.33;0.47;;;;;;;24.04;49.08;98577.56;5066143;28;20066;-72
2022/05/25 11:38:29;;;;;;;1.10;0.50;;;;;;;24.18;45.00;98569.34;5065996;28;20016;-72
2022/05/25 11:41:12;;;;;;;0.73;0.22;;;;;;;23.85;45.12;98571.81;5066052;28;20025;-72
2022/05/25 11:43:45;;;;;;;1.98;0.47;;;;;;;23.17;47.10;98567.88;5065948;28;20223;-72
2022/05/25 11:46:24;;;;;;;2.97;0.50;;;;;;;23.36;47.29;98572.81;5065933;28;20378;-72
2022/05/25 11:49:13;;;;;;;2.60;0.63;;;;;;;23.11;48.24;98569.16;5065774;28;20043;-72
2022/05/25 11:52:10;;;;;;;2.55;0.50;;;;;;;23.17;45.93;98567.88;5065883;28;20031;-72
2022/05/25 11:54:41;;;;;;;2.10;0.32;;;;;;;23.18;45.58;98569.56;5065721;28;20040;-72
2022/05/25 11:57:17;;;;;;;0.50;0.32;;;;;;;23.27;48.28;98574.31;5065654;28;20216;-72
2022/05/25 11:59:54;;;;;;;2.40;0.50;;;;;;;23.17;49.21;98571.41;5065672;28;20095;-72
2022/05/25 12:02:37;;;;;;;2.15;0.55;;;;;;;22.76;49.89;98569.91;5065637;28;20320;-72
2022/05/25 12:05:21;;;;;;;2.17;0.60;;;;;;;22.34;49.60;98570.97;5065549;28;20092;-72
2022/05/25 12:07:49;;;;;;;0.55;0.40;;;;;;;22.32;48.61;98572.03;5064387;28;20058;-72
2022/05/25 12:10:32;;;;;;;0.75;0.57;;;;;;;22.22;50.72;98573.63;5065453;28;20067;-72
2022/05/25 12:13:03;;;;;;;1.17;0.40;;;;;;;22.06;50.48;98571.13;5065492;28;20024;-72
2022/05/25 12:15:51;;;;;;;3.93;0.60;;;;;;;21.87;50.08;98580.47;5064359;28;20024;-72
2022/05/25 12:18:37;;;;;;;2.35;0.73;;;;;;;22.27;52.10;98590.28;5065345;28;20025;-71